Hallie, Wisconsin
Current Conditions -  °F | °C
As of 12:56 AM on Wednesday 22 Oct 2014 (Local Time) from KEAU Reporting Station
Clear Clear  
Wind Chill: 36°   Ceiling: Unl
Heat Index: 41°   Visibility: 10mi
Dew Point: 34°   Wind: 8mph
Humidity: 76%   Direction: 150°SSE
Pressure: 30.25"   Gusts: NA
Location:  44.9743°N, 91.4379°W
Report Text: KEAU 220556Z AUTO 15007KT 10SM CLR 05/01 A3025 RMK AO2 SLP248 T00500011 10094 20039 401330000 51003
Loading
Personal Weather Stations






























Interactive Weather Map
Tropical Storm Tracking
New forecast layout! Learn more

10-Day Weather Forecast

Advertisements
Track Severe Weather on mobile